sensor_id;sensor_type;location;lat;lon;timestamp;P1;durP1;ratioP1;P2;durP2;ratioP2
17596;SDS011;8917;50.942;6.946;2023-03-01T00:00:05;6.97;;;5.87;;
17596;SDS011;8917;50.942;6.946;2023-03-01T00:02:34;7.80;;;6.37;;
17596;SDS011;8917;50.942;6.946;2023-03-01T00:05:02;7.10;;;5.87;;
17596;SDS011;8917;50.942;6.946;2023-03-01T00:07:29;8.30;;;6.33;;
17596;SDS011;8917;50.942;6.946;2023-03-01T00:09:56;9.07;;;6.13;;
17596;SDS011;8917;50.942;6.946;2023-03-01T00:12:23;7.57;;;6.10;;
17596;SDS011;8917;50.942;6.946;2023-03-01T00:14:50;7.93;;;5.83;;
17596;SDS011;8917;50.942;6.946;2023-03-01T00:17:18;7.07;;;5.73;;
17596;SDS011;8917;50.942;6.946;2023-03-01T00:19:46;6.67;;;5.63;;
17596;SDS011;8917;50.942;6.946;2023-03-01T00:22:13;7.37;;;5.77;;
17596;SDS011;8917;50.942;6.946;2023-03-01T00:24:40;6.27;;;5.30;;
17596;SDS011;8917;50.942;6.946;2023-03-01T00:27:07;9.23;;;5.90;;
17596;SDS011;8917;50.942;6.946;2023-03-01T00:29:35;6.70;;;5.40;;
17596;SDS011;8917;50.942;6.946;2023-03-01T00:32:02;6.50;;;5.23;;
17596;SDS011;8917;50.942;6.946;2023-03-01T00:34:29;7.13;;;5.63;;
17596;SDS011;8917;50.942;6.946;2023-03-01T00:36:57;9.70;;;5.50;;
17596;SDS011;8917;50.942;6.946;2023-03-01T00:39:30;6.00;;;5.40;;
17596;SDS011;8917;50.942;6.946;2023-03-01T00:41:57;7.53;;;5.33;;
17596;SDS011;8917;50.942;6.946;2023-03-01T00:44:24;6.53;;;5.33;;
17596;SDS011;8917;50.942;6.946;2023-03-01T00:46:53;7.03;;;5.23;;
17596;SDS011;8917;50.942;6.946;2023-03-01T00:49:20;6.30;;;5.67;;
17596;SDS011;8917;50.942;6.946;2023-03-01T00:51:49;6.23;;;5.30;;
17596;SDS011;8917;50.942;6.946;2023-03-01T00:54:17;8.00;;;5.47;;
17596;SDS011;8917;50.942;6.946;2023-03-01T00:56:45;7.37;;;5.50;;
17596;SDS011;8917;50.942;6.946;2023-03-01T00:59:12;6.40;;;5.23;;
17596;SDS011;8917;50.942;6.946;2023-03-01T01:01:39;6.83;;;5.43;;
17596;SDS011;8917;50.942;6.946;2023-03-01T01:04:07;6.50;;;5.23;;
17596;SDS011;8917;50.942;6.946;2023-03-01T01:06:35;5.80;;;5.20;;
17596;SDS011;8917;50.942;6.946;2023-03-01T01:09:03;7.43;;;5.43;;
17596;SDS011;8917;50.942;6.946;2023-03-01T01:11:33;7.80;;;5.53;;
17596;SDS011;8917;50.942;6.946;2023-03-01T01:14:01;6.97;;;5.40;;
17596;SDS011;8917;50.942;6.946;2023-03-01T01:16:29;6.30;;;5.70;;
17596;SDS011;8917;50.942;6.946;2023-03-01T01:18:56;6.10;;;5.50;;
17596;SDS011;8917;50.942;6.946;2023-03-01T01:21:25;7.70;;;5.50;;
17596;SDS011;8917;50.942;6.946;2023-03-01T01:23:53;7.17;;;5.50;;
17596;SDS011;8917;50.942;6.946;2023-03-01T01:26:21;6.87;;;5.43;;
17596;SDS011;8917;50.942;6.946;2023-03-01T01:28:50;6.20;;;5.60;;
17596;SDS011;8917;50.942;6.946;2023-03-01T01:31:17;5.97;;;5.37;;
17596;SDS011;8917;50.942;6.946;2023-03-01T01:33:45;6.03;;;5.37;;
17596;SDS011;8917;50.942;6.946;2023-03-01T01:36:12;6.80;;;5.57;;
17596;SDS011;8917;50.942;6.946;2023-03-01T01:38:39;6.07;;;5.30;;
17596;SDS011;8917;50.942;6.946;2023-03-01T01:41:08;6.37;;;5.60;;
17596;SDS011;8917;50.942;6.946;2023-03-01T01:43:37;6.87;;;6.10;;
17596;SDS011;8917;50.942;6.946;2023-03-01T01:46:10;5.67;;;5.07;;
17596;SDS011;8917;50.942;6.946;2023-03-01T01:48:43;6.40;;;5.80;;
17596;SDS011;8917;50.942;6.946;2023-03-01T01:51:12;6.87;;;5.80;;
17596;SDS011;8917;50.942;6.946;2023-03-01T01:53:40;7.57;;;5.80;;
17596;SDS011;8917;50.942;6.946;2023-03-01T01:56:08;6.93;;;5.87;;
17596;SDS011;8917;50.942;6.946;2023-03-01T01:58:38;9.07;;;6.07;;
17596;SDS011;8917;50.942;6.946;2023-03-01T02:01:07;8.43;;;6.30;;
17596;SDS011;8917;50.942;6.946;2023-03-01T02:03:35;6.43;;;5.67;;
17596;SDS011;8917;50.942;6.946;2023-03-01T02:06:07;7.57;;;6.00;;
17596;SDS011;8917;50.942;6.946;2023-03-01T02:08:40;8.83;;;6.30;;
17596;SDS011;8917;50.942;6.946;2023-03-01T02:11:07;6.93;;;5.77;;
17596;SDS011;8917;50.942;6.946;2023-03-01T02:13:35;6.47;;;5.73;;
17596;SDS011;8917;50.942;6.946;2023-03-01T02:16:03;5.70;;;5.10;;
17596;SDS011;8917;50.942;6.946;2023-03-01T02:18:32;7.97;;;6.00;;
17596;SDS011;8917;50.942;6.946;2023-03-01T02:21:03;6.93;;;5.80;;
17596;SDS011;8917;50.942;6.946;2023-03-01T02:23:32;6.63;;;5.53;;
17596;SDS011;8917;50.942;6.946;2023-03-01T02:26:03;7.07;;;6.37;;
17596;SDS011;8917;50.942;6.946;2023-03-01T02:28:34;10.87;;;6.47;;
17596;SDS011;8917;50.942;6.946;2023-03-01T02:31:02;7.53;;;5.70;;
17596;SDS011;8917;50.942;6.946;2023-03-01T02:33:47;6.63;;;5.93;;
17596;SDS011;8917;50.942;6.946;2023-03-01T02:36:15;8.10;;;5.90;;
17596;SDS011;8917;50.942;6.946;2023-03-01T02:38:44;7.33;;;5.93;;
17596;SDS011;8917;50.942;6.946;2023-03-01T02:41:11;7.00;;;6.30;;
17596;SDS011;8917;50.942;6.946;2023-03-01T02:43:41;6.87;;;5.50;;
17596;SDS011;8917;50.942;6.946;2023-03-01T02:46:13;9.30;;;6.43;;
17596;SDS011;8917;50.942;6.946;2023-03-01T02:48:42;8.47;;;6.23;;
17596;SDS011;8917;50.942;6.946;2023-03-01T02:51:10;6.90;;;6.17;;
17596;SDS011;8917;50.942;6.946;2023-03-01T02:53:41;6.63;;;5.87;;
17596;SDS011;8917;50.942;6.946;2023-03-01T02:56:11;6.83;;;5.33;;
17596;SDS011;8917;50.942;6.946;2023-03-01T02:58:39;6.60;;;5.70;;
17596;SDS011;8917;50.942;6.946;2023-03-01T03:01:12;7.03;;;5.73;;
17596;SDS011;8917;50.942;6.946;2023-03-01T03:03:40;6.80;;;5.47;;
17596;SDS011;8917;50.942;6.946;2023-03-01T03:06:08;8.83;;;6.13;;
17596;SDS011;8917;50.942;6.946;2023-03-01T03:08:35;5.93;;;5.33;;
17596;SDS011;8917;50.942;6.946;2023-03-01T03:11:02;7.73;;;5.80;;
17596;SDS011;8917;50.942;6.946;2023-03-01T03:13:29;7.17;;;5.87;;
17596;SDS011;8917;50.942;6.946;2023-03-01T03:15:57;8.33;;;6.00;;
17596;SDS011;8917;50.942;6.946;2023-03-01T03:18:26;7.13;;;6.40;;
17596;SDS011;8917;50.942;6.946;2023-03-01T03:20:53;6.80;;;6.10;;
17596;SDS011;8917;50.942;6.946;2023-03-01T03:23:20;8.00;;;5.57;;
17596;SDS011;8917;50.942;6.946;2023-03-01T03:25:48;6.83;;;6.10;;
17596;SDS011;8917;50.942;6.946;2023-03-01T03:28:16;6.77;;;6.07;;
17596;SDS011;8917;50.942;6.946;2023-03-01T03:30:43;6.60;;;5.50;;
17596;SDS011;8917;50.942;6.946;2023-03-01T03:33:11;6.30;;;5.70;;
17596;SDS011;8917;50.942;6.946;2023-03-01T03:35:41;6.90;;;5.90;;
17596;SDS011;8917;50.942;6.946;2023-03-01T03:38:09;8.57;;;6.40;;
17596;SDS011;8917;50.942;6.946;2023-03-01T03:40:41;7.60;;;6.50;;
17596;SDS011;8917;50.942;6.946;2023-03-01T03:43:10;6.63;;;5.90;;
17596;SDS011;8917;50.942;6.946;2023-03-01T03:45:37;7.00;;;6.20;;
17596;SDS011;8917;50.942;6.946;2023-03-01T03:48:05;7.63;;;5.97;;
17596;SDS011;8917;50.942;6.946;2023-03-01T03:50:33;6.87;;;6.10;;
17596;SDS011;8917;50.942;6.946;2023-03-01T03:53:02;6.77;;;6.07;;
17596;SDS011;8917;50.942;6.946;2023-03-01T03:55:29;6.10;;;5.50;;
17596;SDS011;8917;50.942;6.946;2023-03-01T03:57:58;6.60;;;6.00;;
17596;SDS011;8917;50.942;6.946;2023-03-01T04:00:27;8.33;;;6.30;;
17596;SDS011;8917;50.942;6.946;2023-03-01T04:02:54;7.00;;;6.27;;
17596;SDS011;8917;50.942;6.946;2023-03-01T04:05:22;7.13;;;6.20;;
17596;SDS011;8917;50.942;6.946;2023-03-01T04:07:49;7.80;;;7.00;;
17596;SDS011;8917;50.942;6.946;2023-03-01T04:10:28;7.43;;;6.23;;
17596;SDS011;8917;50.942;6.946;2023-03-01T04:12:55;8.17;;;6.23;;
17596;SDS011;8917;50.942;6.946;2023-03-01T04:15:22;7.97;;;6.43;;
17596;SDS011;8917;50.942;6.946;2023-03-01T04:17:50;6.90;;;6.20;;
17596;SDS011;8917;50.942;6.946;2023-03-01T04:20:18;7.17;;;5.97;;
17596;SDS011;8917;50.942;6.946;2023-03-01T04:22:50;7.23;;;6.33;;
17596;SDS011;8917;50.942;6.946;2023-03-01T04:25:17;6.73;;;6.00;;
17596;SDS011;8917;50.942;6.946;2023-03-01T04:27:46;8.57;;;6.77;;
17596;SDS011;8917;50.942;6.946;2023-03-01T04:30:13;8.17;;;6.50;;
17596;SDS011;8917;50.942;6.946;2023-03-01T04:32:40;8.60;;;7.03;;
17596;SDS011;8917;50.942;6.946;2023-03-01T04:35:08;7.07;;;6.37;;
17596;SDS011;8917;50.942;6.946;2023-03-01T04:37:35;9.50;;;7.30;;
17596;SDS011;8917;50.942;6.946;2023-03-01T04:40:03;9.17;;;6.90;;
17596;SDS011;8917;50.942;6.946;2023-03-01T04:42:40;8.97;;;7.10;;
17596;SDS011;8917;50.942;6.946;2023-03-01T04:45:10;9.90;;;6.93;;
17596;SDS011;8917;50.942;6.946;2023-03-01T04:47:39;9.40;;;6.83;;
17596;SDS011;8917;50.942;6.946;2023-03-01T04:50:08;9.03;;;7.30;;
17596;SDS011;8917;50.942;6.946;2023-03-01T04:52:35;8.30;;;7.50;;
17596;SDS011;8917;50.942;6.946;2023-03-01T04:55:03;10.50;;;7.20;;
17596;SDS011;8917;50.942;6.946;2023-03-01T04:57:30;10.27;;;7.77;;
17596;SDS011;8917;50.942;6.946;2023-03-01T04:59:58;8.73;;;7.70;;
17596;SDS011;8917;50.942;6.946;2023-03-01T05:02:26;11.10;;;7.53;;
17596;SDS011;8917;50.942;6.946;2023-03-01T05:04:54;9.17;;;7.70;;
17596;SDS011;8917;50.942;6.946;2023-03-01T05:07:22;12.47;;;7.87;;
17596;SDS011;8917;50.942;6.946;2023-03-01T05:09:51;8.33;;;7.43;;
17596;SDS011;8917;50.942;6.946;2023-03-01T05:12:19;9.37;;;7.10;;
17596;SDS011;8917;50.942;6.946;2023-03-01T05:14:46;8.27;;;7.37;;
17596;SDS011;8917;50.942;6.946;2023-03-01T05:17:13;10.20;;;7.93;;
17596;SDS011;8917;50.942;6.946;2023-03-01T05:19:42;8.30;;;7.43;;
17596;SDS011;8917;50.942;6.946;2023-03-01T05:22:09;9.13;;;7.70;;
17596;SDS011;8917;50.942;6.946;2023-03-01T05:24:36;10.63;;;8.10;;
17596;SDS011;8917;50.942;6.946;2023-03-01T05:27:04;8.53;;;7.73;;
17596;SDS011;8917;50.942;6.946;2023-03-01T05:29:31;12.13;;;7.53;;
17596;SDS011;8917;50.942;6.946;2023-03-01T05:32:00;8.47;;;7.67;;
17596;SDS011;8917;50.942;6.946;2023-03-01T05:34:28;11.57;;;8.10;;
17596;SDS011;8917;50.942;6.946;2023-03-01T05:36:57;8.13;;;7.33;;
17596;SDS011;8917;50.942;6.946;2023-03-01T05:39:26;8.90;;;7.50;;
17596;SDS011;8917;50.942;6.946;2023-03-01T05:41:53;8.17;;;7.37;;
17596;SDS011;8917;50.942;6.946;2023-03-01T05:44:21;9.07;;;7.83;;
17596;SDS011;8917;50.942;6.946;2023-03-01T05:46:48;8.97;;;8.07;;
17596;SDS011;8917;50.942;6.946;2023-03-01T05:49:16;10.83;;;7.97;;
17596;SDS011;8917;50.942;6.946;2023-03-01T05:51:47;8.83;;;8.00;;
17596;SDS011;8917;50.942;6.946;2023-03-01T05:54:15;10.30;;;7.83;;
17596;SDS011;8917;50.942;6.946;2023-03-01T05:56:43;9.40;;;8.00;;
17596;SDS011;8917;50.942;6.946;2023-03-01T05:59:11;9.73;;;7.53;;
17596;SDS011;8917;50.942;6.946;2023-03-01T06:01:38;10.90;;;7.63;;
17596;SDS011;8917;50.942;6.946;2023-03-01T06:04:06;9.93;;;8.13;;
17596;SDS011;8917;50.942;6.946;2023-03-01T06:06:33;8.70;;;7.80;;
17596;SDS011;8917;50.942;6.946;2023-03-01T06:09:02;9.07;;;7.90;;
17596;SDS011;8917;50.942;6.946;2023-03-01T06:11:31;10.87;;;8.07;;
17596;SDS011;8917;50.942;6.946;2023-03-01T06:14:00;10.10;;;8.27;;
17596;SDS011;8917;50.942;6.946;2023-03-01T06:16:27;8.47;;;7.57;;
17596;SDS011;8917;50.942;6.946;2023-03-01T06:18:54;12.53;;;11.07;;
17596;SDS011;8917;50.942;6.946;2023-03-01T06:21:21;11.53;;;8.30;;
17596;SDS011;8917;50.942;6.946;2023-03-01T06:23:49;25.60;;;9.40;;
17596;SDS011;8917;50.942;6.946;2023-03-01T06:26:16;11.37;;;9.10;;
17596;SDS011;8917;50.942;6.946;2023-03-01T06:28:45;12.00;;;8.10;;
17596;SDS011;8917;50.942;6.946;2023-03-01T06:31:12;9.77;;;8.23;;
17596;SDS011;8917;50.942;6.946;2023-03-01T06:33:39;11.10;;;9.27;;
17596;SDS011;8917;50.942;6.946;2023-03-01T06:36:07;10.30;;;8.70;;
17596;SDS011;8917;50.942;6.946;2023-03-01T06:38:35;11.83;;;9.13;;
17596;SDS011;8917;50.942;6.946;2023-03-01T06:41:02;10.33;;;8.87;;
17596;SDS011;8917;50.942;6.946;2023-03-01T06:43:29;10.43;;;8.47;;
17596;SDS011;8917;50.942;6.946;2023-03-01T06:45:58;10.33;;;8.67;;
17596;SDS011;8917;50.942;6.946;2023-03-01T06:48:25;10.43;;;8.10;;
17596;SDS011;8917;50.942;6.946;2023-03-01T06:50:53;9.70;;;8.70;;
17596;SDS011;8917;50.942;6.946;2023-03-01T06:53:20;11.30;;;8.90;;
17596;SDS011;8917;50.942;6.946;2023-03-01T06:55:47;11.33;;;8.17;;
17596;SDS011;8917;50.942;6.946;2023-03-01T06:58:14;11.60;;;8.77;;
17596;SDS011;8917;50.942;6.946;2023-03-01T07:00:41;13.53;;;9.50;;
17596;SDS011;8917;50.942;6.946;2023-03-01T07:03:10;11.67;;;8.73;;
17596;SDS011;8917;50.942;6.946;2023-03-01T07:05:37;13.77;;;9.97;;
17596;SDS011;8917;50.942;6.946;2023-03-01T07:08:04;9.87;;;8.57;;
17596;SDS011;8917;50.942;6.946;2023-03-01T07:10:32;10.20;;;9.00;;
17596;SDS011;8917;50.942;6.946;2023-03-01T07:12:59;10.27;;;8.37;;
17596;SDS011;8917;50.942;6.946;2023-03-01T07:15:26;14.83;;;9.60;;
17596;SDS011;8917;50.942;6.946;2023-03-01T07:17:54;11.03;;;8.93;;
17596;SDS011;8917;50.942;6.946;2023-03-01T07:20:22;13.43;;;9.13;;
17596;SDS011;8917;50.942;6.946;2023-03-01T07:22:50;10.93;;;9.03;;
17596;SDS011;8917;50.942;6.946;2023-03-01T07:25:17;11.53;;;9.30;;
17596;SDS011;8917;50.942;6.946;2023-03-01T07:27:48;15.63;;;11.30;;
17596;SDS011;8917;50.942;6.946;2023-03-01T07:30:16;17.53;;;10.93;;
17596;SDS011;8917;50.942;6.946;2023-03-01T07:32:43;13.70;;;10.03;;
17596;SDS011;8917;50.942;6.946;2023-03-01T07:35:11;14.03;;;10.27;;
17596;SDS011;8917;50.942;6.946;2023-03-01T07:37:41;12.33;;;9.30;;
17596;SDS011;8917;50.942;6.946;2023-03-01T07:40:08;12.47;;;9.43;;
17596;SDS011;8917;50.942;6.946;2023-03-01T07:42:36;18.67;;;12.73;;
17596;SDS011;8917;50.942;6.946;2023-03-01T07:45:04;13.03;;;10.63;;
17596;SDS011;8917;50.942;6.946;2023-03-01T07:47:32;16.20;;;9.67;;
17596;SDS011;8917;50.942;6.946;2023-03-01T07:49:59;15.90;;;10.57;;
17596;SDS011;8917;50.942;6.946;2023-03-01T07:52:27;11.93;;;10.10;;
17596;SDS011;8917;50.942;6.946;2023-03-01T07:54:56;11.50;;;9.53;;
17596;SDS011;8917;50.942;6.946;2023-03-01T07:57:23;13.97;;;11.03;;
17596;SDS011;8917;50.942;6.946;2023-03-01T07:59:50;11.10;;;9.83;;
17596;SDS011;8917;50.942;6.946;2023-03-01T08:02:17;17.10;;;10.60;;
17596;SDS011;8917;50.942;6.946;2023-03-01T08:04:45;11.30;;;10.10;;
17596;SDS011;8917;50.942;6.946;2023-03-01T08:07:12;11.30;;;9.90;;
17596;SDS011;8917;50.942;6.946;2023-03-01T08:09:39;12.93;;;10.80;;
17596;SDS011;8917;50.942;6.946;2023-03-01T08:12:08;12.13;;;10.83;;
17596;SDS011;8917;50.942;6.946;2023-03-01T08:14:35;10.70;;;9.53;;
17596;SDS011;8917;50.942;6.946;2023-03-01T08:17:02;14.40;;;10.03;;
17596;SDS011;8917;50.942;6.946;2023-03-01T08:19:29;13.90;;;10.87;;
17596;SDS011;8917;50.942;6.946;2023-03-01T08:21:58;13.70;;;9.53;;
17596;SDS011;8917;50.942;6.946;2023-03-01T08:24:25;13.20;;;11.13;;
17596;SDS011;8917;50.942;6.946;2023-03-01T08:26:52;10.80;;;9.70;;
17596;SDS011;8917;50.942;6.946;2023-03-01T08:29:21;12.73;;;9.97;;
17596;SDS011;8917;50.942;6.946;2023-03-01T08:31:49;13.80;;;11.27;;
17596;SDS011;8917;50.942;6.946;2023-03-01T08:34:17;11.00;;;9.80;;
17596;SDS011;8917;50.942;6.946;2023-03-01T08:36:44;13.13;;;10.40;;
17596;SDS011;8917;50.942;6.946;2023-03-01T08:39:13;14.40;;;10.63;;
17596;SDS011;8917;50.942;6.946;2023-03-01T08:41:40;14.83;;;10.43;;
17596;SDS011;8917;50.942;6.946;2023-03-01T08:44:09;12.40;;;9.87;;
17596;SDS011;8917;50.942;6.946;2023-03-01T08:46:38;16.20;;;12.03;;
17596;SDS011;8917;50.942;6.946;2023-03-01T08:49:06;14.30;;;10.90;;
17596;SDS011;8917;50.942;6.946;2023-03-01T08:51:34;12.17;;;10.53;;
17596;SDS011;8917;50.942;6.946;2023-03-01T08:54:02;15.93;;;10.20;;
17596;SDS011;8917;50.942;6.946;2023-03-01T08:56:29;13.33;;;11.03;;
17596;SDS011;8917;50.942;6.946;2023-03-01T08:58:57;13.80;;;10.33;;
17596;SDS011;8917;50.942;6.946;2023-03-01T09:01:24;14.77;;;11.03;;
17596;SDS011;8917;50.942;6.946;2023-03-01T09:03:53;12.97;;;9.87;;
17596;SDS011;8917;50.942;6.946;2023-03-01T09:06:20;12.50;;;9.93;;
17596;SDS011;8917;50.942;6.946;2023-03-01T09:08:48;14.73;;;11.23;;
17596;SDS011;8917;50.942;6.946;2023-03-01T09:11:16;12.50;;;9.07;;
17596;SDS011;8917;50.942;6.946;2023-03-01T09:13:44;11.43;;;9.53;;
17596;SDS011;8917;50.942;6.946;2023-03-01T09:16:12;13.60;;;8.90;;
17596;SDS011;8917;50.942;6.946;2023-03-01T09:18:40;9.87;;;8.77;;
17596;SDS011;8917;50.942;6.946;2023-03-01T09:21:09;13.30;;;9.13;;
17596;SDS011;8917;50.942;6.946;2023-03-01T09:23:37;10.77;;;8.40;;
17596;SDS011;8917;50.942;6.946;2023-03-01T09:26:05;12.57;;;9.40;;
17596;SDS011;8917;50.942;6.946;2023-03-01T09:28:33;10.73;;;9.10;;
17596;SDS011;8917;50.942;6.946;2023-03-01T09:31:00;11.63;;;8.67;;
17596;SDS011;8917;50.942;6.946;2023-03-01T09:33:28;10.97;;;9.27;;
17596;SDS011;8917;50.942;6.946;2023-03-01T09:35:56;12.00;;;9.30;;
17596;SDS011;8917;50.942;6.946;2023-03-01T09:38:25;13.70;;;9.70;;
17596;SDS011;8917;50.942;6.946;2023-03-01T09:40:52;12.83;;;9.37;;
17596;SDS011;8917;50.942;6.946;2023-03-01T09:43:21;11.57;;;9.07;;
17596;SDS011;8917;50.942;6.946;2023-03-01T09:45:50;12.23;;;9.57;;
17596;SDS011;8917;50.942;6.946;2023-03-01T09:48:21;11.73;;;8.83;;
17596;SDS011;8917;50.942;6.946;2023-03-01T09:50:50;10.70;;;8.13;;
17596;SDS011;8917;50.942;6.946;2023-03-01T09:53:18;11.17;;;8.93;;
17596;SDS011;8917;50.942;6.946;2023-03-01T09:55:50;12.80;;;9.23;;
17596;SDS011;8917;50.942;6.946;2023-03-01T09:58:27;10.87;;;8.03;;
17596;SDS011;8917;50.942;6.946;2023-03-01T10:00:56;13.90;;;8.70;;
17596;SDS011;8917;50.942;6.946;2023-03-01T10:03:25;9.10;;;8.00;;
17596;SDS011;8917;50.942;6.946;2023-03-01T10:05:56;12.43;;;9.07;;
17596;SDS011;8917;50.942;6.946;2023-03-01T10:08:26;12.23;;;8.93;;
17596;SDS011;8917;50.942;6.946;2023-03-01T10:10:57;10.33;;;8.80;;
17596;SDS011;8917;50.942;6.946;2023-03-01T10:13:26;10.53;;;8.27;;
17596;SDS011;8917;50.942;6.946;2023-03-01T10:15:56;10.93;;;8.70;;
17596;SDS011;8917;50.942;6.946;2023-03-01T10:18:24;10.00;;;8.30;;
17596;SDS011;8917;50.942;6.946;2023-03-01T10:20:53;10.63;;;8.97;;
17596;SDS011;8917;50.942;6.946;2023-03-01T10:23:21;11.53;;;9.07;;
17596;SDS011;8917;50.942;6.946;2023-03-01T10:25:53;12.87;;;9.17;;
17596;SDS011;8917;50.942;6.946;2023-03-01T10:28:33;10.70;;;8.30;;
17596;SDS011;8917;50.942;6.946;2023-03-01T10:31:04;11.77;;;8.70;;
17596;SDS011;8917;50.942;6.946;2023-03-01T10:33:32;13.40;;;8.97;;
17596;SDS011;8917;50.942;6.946;2023-03-01T10:36:02;11.17;;;8.67;;
17596;SDS011;8917;50.942;6.946;2023-03-01T10:38:30;15.20;;;10.70;;
17596;SDS011;8917;50.942;6.946;2023-03-01T10:40:58;11.47;;;8.47;;
17596;SDS011;8917;50.942;6.946;2023-03-01T10:43:30;11.03;;;9.17;;
17596;SDS011;8917;50.942;6.946;2023-03-01T10:45:59;12.30;;;9.77;;
17596;SDS011;8917;50.942;6.946;2023-03-01T10:48:26;10.77;;;8.90;;
17596;SDS011;8917;50.942;6.946;2023-03-01T10:51:04;9.50;;;8.50;;
17596;SDS011;8917;50.942;6.946;2023-03-01T10:53:33;11.60;;;8.80;;
17596;SDS011;8917;50.942;6.946;2023-03-01T10:56:01;12.10;;;8.60;;
17596;SDS011;8917;50.942;6.946;2023-03-01T10:58:31;12.43;;;9.23;;
17596;SDS011;8917;50.942;6.946;2023-03-01T11:00:59;12.83;;;8.43;;
17596;SDS011;8917;50.942;6.946;2023-03-01T11:03:27;9.93;;;8.93;;
17596;SDS011;8917;50.942;6.946;2023-03-01T11:05:58;10.53;;;8.97;;
17596;SDS011;8917;50.942;6.946;2023-03-01T11:08:29;13.97;;;10.20;;
17596;SDS011;8917;50.942;6.946;2023-03-01T11:11:04;9.63;;;8.43;;
17596;SDS011;8917;50.942;6.946;2023-03-01T11:13:33;12.47;;;10.03;;
17596;SDS011;8917;50.942;6.946;2023-03-01T11:16:01;12.87;;;10.63;;
17596;SDS011;8917;50.942;6.946;2023-03-01T11:18:29;11.83;;;9.70;;
17596;SDS011;8917;50.942;6.946;2023-03-01T11:20:56;10.20;;;9.10;;
17596;SDS011;8917;50.942;6.946;2023-03-01T11:23:25;12.53;;;9.90;;
17596;SDS011;8917;50.942;6.946;2023-03-01T11:25:54;11.30;;;9.33;;
17596;SDS011;8917;50.942;6.946;2023-03-01T11:28:22;13.40;;;9.80;;
17596;SDS011;8917;50.942;6.946;2023-03-01T11:30:53;11.60;;;8.40;;
17596;SDS011;8917;50.942;6.946;2023-03-01T11:33:24;11.50;;;8.77;;
17596;SDS011;8917;50.942;6.946;2023-03-01T11:36:00;11.27;;;8.83;;
17596;SDS011;8917;50.942;6.946;2023-03-01T11:38:28;13.97;;;9.47;;
17596;SDS011;8917;50.942;6.946;2023-03-01T11:41:00;10.97;;;9.10;;
17596;SDS011;8917;50.942;6.946;2023-03-01T11:43:31;13.10;;;10.90;;
17596;SDS011;8917;50.942;6.946;2023-03-01T11:46:14;12.23;;;9.57;;
17596;SDS011;8917;50.942;6.946;2023-03-01T11:48:50;11.00;;;8.80;;
17596;SDS011;8917;50.942;6.946;2023-03-01T11:51:22;13.60;;;8.83;;
17596;SDS011;8917;50.942;6.946;2023-03-01T11:53:55;10.53;;;8.33;;
17596;SDS011;8917;50.942;6.946;2023-03-01T11:56:27;11.17;;;8.77;;
17596;SDS011;8917;50.942;6.946;2023-03-01T11:59:01;12.83;;;8.23;;
17596;SDS011;8917;50.942;6.946;2023-03-01T12:01:37;10.97;;;8.03;;
17596;SDS011;8917;50.942;6.946;2023-03-01T12:04:25;10.10;;;8.73;;
17596;SDS011;8917;50.942;6.946;2023-03-01T12:06:59;10.27;;;8.17;;
17596;SDS011;8917;50.942;6.946;2023-03-01T12:09:31;10.93;;;8.07;;
17596;SDS011;8917;50.942;6.946;2023-03-01T12:12:08;14.07;;;8.83;;
17596;SDS011;8917;50.942;6.946;2023-03-01T12:14:44;11.47;;;8.90;;
17596;SDS011;8917;50.942;6.946;2023-03-01T12:17:19;12.63;;;9.53;;
17596;SDS011;8917;50.942;6.946;2023-03-01T12:19:56;8.83;;;7.93;;
17596;SDS011;8917;50.942;6.946;2023-03-01T12:22:32;10.37;;;8.37;;
17596;SDS011;8917;50.942;6.946;2023-03-01T12:25:20;10.13;;;8.70;;
17596;SDS011;8917;50.942;6.946;2023-03-01T12:27:55;9.50;;;8.30;;
17596;SDS011;8917;50.942;6.946;2023-03-01T12:30:26;10.43;;;8.37;;
17596;SDS011;8917;50.942;6.946;2023-03-01T12:33:02;11.60;;;9.57;;
17596;SDS011;8917;50.942;6.946;2023-03-01T12:35:36;11.83;;;9.47;;
17596;SDS011;8917;50.942;6.946;2023-03-01T12:38:07;11.60;;;8.63;;
17596;SDS011;8917;50.942;6.946;2023-03-01T12:40:41;13.83;;;10.03;;
17596;SDS011;8917;50.942;6.946;2023-03-01T12:43:13;10.27;;;7.60;;
17596;SDS011;8917;50.942;6.946;2023-03-01T12:45:47;10.47;;;8.20;;
17596;SDS011;8917;50.942;6.946;2023-03-01T12:48:24;9.00;;;7.93;;
17596;SDS011;8917;50.942;6.946;2023-03-01T12:50:56;10.03;;;8.57;;
17596;SDS011;8917;50.942;6.946;2023-03-01T12:53:25;12.10;;;9.60;;
17596;SDS011;8917;50.942;6.946;2023-03-01T12:55:53;16.90;;;9.83;;
17596;SDS011;8917;50.942;6.946;2023-03-01T12:58:24;14.53;;;10.40;;
17596;SDS011;8917;50.942;6.946;2023-03-01T13:00:57;12.40;;;9.40;;
17596;SDS011;8917;50.942;6.946;2023-03-01T13:03:29;12.97;;;8.60;;
17596;SDS011;8917;50.942;6.946;2023-03-01T13:06:03;13.03;;;9.07;;
17596;SDS011;8917;50.942;6.946;2023-03-01T13:08:35;11.13;;;8.73;;
17596;SDS011;8917;50.942;6.946;2023-03-01T13:11:03;10.10;;;7.63;;
17596;SDS011;8917;50.942;6.946;2023-03-01T13:13:31;12.80;;;10.27;;
17596;SDS011;8917;50.942;6.946;2023-03-01T13:16:18;13.53;;;9.83;;
17596;SDS011;8917;50.942;6.946;2023-03-01T13:18:48;11.73;;;9.03;;
17596;SDS011;8917;50.942;6.946;2023-03-01T13:21:28;11.63;;;9.03;;
17596;SDS011;8917;50.942;6.946;2023-03-01T13:23:55;13.77;;;9.83;;
17596;SDS011;8917;50.942;6.946;2023-03-01T13:26:23;17.92;;;13.23;;
17596;SDS011;8917;50.942;6.946;2023-03-01T13:28:51;12.03;;;8.63;;
17596;SDS011;8917;50.942;6.946;2023-03-01T13:34:19;10.40;;;7.97;;
17596;SDS011;8917;50.942;6.946;2023-03-01T13:37:08;9.83;;;8.00;;
17596;SDS011;8917;50.942;6.946;2023-03-01T13:39:39;11.23;;;8.50;;
17596;SDS011;8917;50.942;6.946;2023-03-01T13:44:48;11.07;;;8.23;;
17596;SDS011;8917;50.942;6.946;2023-03-01T13:47:16;11.40;;;8.27;;
17596;SDS011;8917;50.942;6.946;2023-03-01T13:49:47;9.77;;;7.60;;
17596;SDS011;8917;50.942;6.946;2023-03-01T13:52:32;11.03;;;7.43;;
17596;SDS011;8917;50.942;6.946;2023-03-01T13:55:01;20.87;;;16.20;;
17596;SDS011;8917;50.942;6.946;2023-03-01T13:57:30;10.33;;;7.63;;
17596;SDS011;8917;50.942;6.946;2023-03-01T14:00:00;18.17;;;14.20;;
17596;SDS011;8917;50.942;6.946;2023-03-01T14:02:28;9.40;;;7.60;;
17596;SDS011;8917;50.942;6.946;2023-03-01T14:04:59;11.77;;;9.53;;
17596;SDS011;8917;50.942;6.946;2023-03-01T14:07:27;9.33;;;7.50;;
17596;SDS011;8917;50.942;6.946;2023-03-01T14:09:56;9.63;;;7.73;;
17596;SDS011;8917;50.942;6.946;2023-03-01T14:12:35;9.63;;;7.97;;
17596;SDS011;8917;50.942;6.946;2023-03-01T14:15:06;8.67;;;6.93;;
17596;SDS011;8917;50.942;6.946;2023-03-01T14:17:39;8.63;;;7.43;;
17596;SDS011;8917;50.942;6.946;2023-03-01T14:20:11;7.63;;;6.83;;
17596;SDS011;8917;50.942;6.946;2023-03-01T14:22:40;9.10;;;7.20;;
17596;SDS011;8917;50.942;6.946;2023-03-01T14:25:17;7.97;;;6.73;;
17596;SDS011;8917;50.942;6.946;2023-03-01T14:27:51;7.67;;;6.90;;
17596;SDS011;8917;50.942;6.946;2023-03-01T14:30:19;9.20;;;7.57;;
17596;SDS011;8917;50.942;6.946;2023-03-01T14:32:52;7.97;;;6.07;;
17596;SDS011;8917;50.942;6.946;2023-03-01T14:35:21;7.27;;;6.33;;
17596;SDS011;8917;50.942;6.946;2023-03-01T14:37:49;7.90;;;7.10;;
17596;SDS011;8917;50.942;6.946;2023-03-01T14:40:23;9.47;;;7.43;;
17596;SDS011;8917;50.942;6.946;2023-03-01T14:42:51;8.67;;;7.77;;
17596;SDS011;8917;50.942;6.946;2023-03-01T14:45:19;10.27;;;7.13;;
17596;SDS011;8917;50.942;6.946;2023-03-01T14:47:46;11.23;;;7.57;;
17596;SDS011;8917;50.942;6.946;2023-03-01T14:50:16;9.57;;;7.00;;
17596;SDS011;8917;50.942;6.946;2023-03-01T14:52:47;9.67;;;7.27;;
17596;SDS011;8917;50.942;6.946;2023-03-01T14:55:15;10.17;;;7.50;;
17596;SDS011;8917;50.942;6.946;2023-03-01T14:57:43;8.93;;;7.17;;
17596;SDS011;8917;50.942;6.946;2023-03-01T15:00:13;11.63;;;8.67;;
17596;SDS011;8917;50.942;6.946;2023-03-01T15:02:42;9.43;;;7.43;;
17596;SDS011;8917;50.942;6.946;2023-03-01T15:05:10;8.33;;;7.27;;
17596;SDS011;8917;50.942;6.946;2023-03-01T15:07:38;10.50;;;7.47;;
17596;SDS011;8917;50.942;6.946;2023-03-01T15:10:14;7.97;;;6.90;;